sensor_id;sensor_type;location;lat;lon;timestamp;P1;durP1;ratioP1;P2;durP2;ratioP2
4698;SDS011;33708;49.466;11.176;2022-10-31T00:02:22;22.67;;;6.60;;
4698;SDS011;33708;49.466;11.176;2022-10-31T00:04:48;20.03;;;6.27;;
4698;SDS011;33708;49.466;11.176;2022-10-31T00:07:13;24.97;;;5.97;;
4698;SDS011;33708;49.466;11.176;2022-10-31T00:09:39;25.30;;;6.60;;
4698;SDS011;33708;49.466;11.176;2022-10-31T00:12:04;18.13;;;6.53;;
4698;SDS011;33708;49.466;11.176;2022-10-31T00:14:30;22.50;;;6.93;;
4698;SDS011;33708;49.466;11.176;2022-10-31T00:16:56;18.03;;;6.07;;
4698;SDS011;33708;49.466;11.176;2022-10-31T00:19:21;22.33;;;6.90;;
4698;SDS011;33708;49.466;11.176;2022-10-31T00:21:47;21.93;;;6.57;;
4698;SDS011;33708;49.466;11.176;2022-10-31T00:24:12;19.60;;;6.43;;
4698;SDS011;33708;49.466;11.176;2022-10-31T00:26:38;26.30;;;6.77;;
4698;SDS011;33708;49.466;11.176;2022-10-31T00:29:03;23.27;;;7.07;;
4698;SDS011;33708;49.466;11.176;2022-10-31T00:31:29;18.70;;;6.20;;
4698;SDS011;33708;49.466;11.176;2022-10-31T00:33:55;23.60;;;6.33;;
4698;SDS011;33708;49.466;11.176;2022-10-31T00:36:22;22.93;;;6.37;;
4698;SDS011;33708;49.466;11.176;2022-10-31T00:38:47;22.43;;;6.80;;
4698;SDS011;33708;49.466;11.176;2022-10-31T00:41:14;22.60;;;6.67;;
4698;SDS011;33708;49.466;11.176;2022-10-31T00:43:41;23.90;;;5.43;;
4698;SDS011;33708;49.466;11.176;2022-10-31T00:46:07;15.30;;;5.60;;
4698;SDS011;33708;49.466;11.176;2022-10-31T00:48:34;20.77;;;6.93;;
4698;SDS011;33708;49.466;11.176;2022-10-31T00:50:59;16.80;;;6.80;;
4698;SDS011;33708;49.466;11.176;2022-10-31T00:53:25;20.63;;;6.80;;
4698;SDS011;33708;49.466;11.176;2022-10-31T00:55:50;20.20;;;8.10;;
4698;SDS011;33708;49.466;11.176;2022-10-31T00:58:16;21.17;;;7.97;;
4698;SDS011;33708;49.466;11.176;2022-10-31T01:00:42;28.77;;;8.63;;
4698;SDS011;33708;49.466;11.176;2022-10-31T01:03:07;28.93;;;8.00;;
4698;SDS011;33708;49.466;11.176;2022-10-31T01:05:33;23.40;;;8.30;;
4698;SDS011;33708;49.466;11.176;2022-10-31T01:07:58;19.27;;;8.20;;
4698;SDS011;33708;49.466;11.176;2022-10-31T01:10:24;20.60;;;7.13;;
4698;SDS011;33708;49.466;11.176;2022-10-31T01:12:50;27.07;;;8.50;;
4698;SDS011;33708;49.466;11.176;2022-10-31T01:15:20;18.13;;;7.30;;
4698;SDS011;33708;49.466;11.176;2022-10-31T01:17:46;23.47;;;8.30;;
4698;SDS011;33708;49.466;11.176;2022-10-31T01:20:13;21.27;;;7.77;;
4698;SDS011;33708;49.466;11.176;2022-10-31T01:22:40;23.53;;;6.37;;
4698;SDS011;33708;49.466;11.176;2022-10-31T01:25:06;17.23;;;6.40;;
4698;SDS011;33708;49.466;11.176;2022-10-31T01:27:33;18.43;;;6.67;;
4698;SDS011;33708;49.466;11.176;2022-10-31T01:29:58;19.73;;;7.67;;
4698;SDS011;33708;49.466;11.176;2022-10-31T01:32:24;19.77;;;7.47;;
4698;SDS011;33708;49.466;11.176;2022-10-31T01:34:49;19.73;;;7.23;;
4698;SDS011;33708;49.466;11.176;2022-10-31T01:37:15;18.63;;;7.07;;
4698;SDS011;33708;49.466;11.176;2022-10-31T01:39:41;23.07;;;9.07;;
4698;SDS011;33708;49.466;11.176;2022-10-31T01:42:07;29.60;;;11.40;;
4698;SDS011;33708;49.466;11.176;2022-10-31T01:47:13;23.03;;;9.00;;
4698;SDS011;33708;49.466;11.176;2022-10-31T01:49:46;25.17;;;8.70;;
4698;SDS011;33708;49.466;11.176;2022-10-31T01:52:22;23.60;;;8.97;;
4698;SDS011;33708;49.466;11.176;2022-10-31T01:54:56;23.90;;;8.27;;
4698;SDS011;33708;49.466;11.176;2022-10-31T01:57:24;31.00;;;9.77;;
4698;SDS011;33708;49.466;11.176;2022-10-31T01:59:51;24.20;;;9.30;;
4698;SDS011;33708;49.466;11.176;2022-10-31T02:02:22;25.50;;;7.50;;
4698;SDS011;33708;49.466;11.176;2022-10-31T02:04:50;22.17;;;8.00;;
4698;SDS011;33708;49.466;11.176;2022-10-31T02:07:18;19.97;;;8.07;;
4698;SDS011;33708;49.466;11.176;2022-10-31T02:09:58;22.03;;;7.37;;
4698;SDS011;33708;49.466;11.176;2022-10-31T02:12:25;27.53;;;8.23;;
4698;SDS011;33708;49.466;11.176;2022-10-31T02:14:50;30.80;;;7.40;;
4698;SDS011;33708;49.466;11.176;2022-10-31T02:17:16;23.00;;;7.00;;
4698;SDS011;33708;49.466;11.176;2022-10-31T02:27:44;20.83;;;6.90;;
4698;SDS011;33708;49.466;11.176;2022-10-31T02:30:24;17.80;;;7.13;;
4698;SDS011;33708;49.466;11.176;2022-10-31T02:32:58;20.20;;;6.93;;
4698;SDS011;33708;49.466;11.176;2022-10-31T02:35:57;18.93;;;7.80;;
4698;SDS011;33708;49.466;11.176;2022-10-31T02:44:08;32.73;;;7.20;;
4698;SDS011;33708;49.466;11.176;2022-10-31T02:51:43;30.43;;;7.47;;
4698;SDS011;33708;49.466;11.176;2022-10-31T02:54:17;18.00;;;7.30;;
4698;SDS011;33708;49.466;11.176;2022-10-31T02:56:44;18.63;;;7.30;;
4698;SDS011;33708;49.466;11.176;2022-10-31T02:59:11;24.20;;;8.27;;
4698;SDS011;33708;49.466;11.176;2022-10-31T03:10:35;25.73;;;8.20;;
4698;SDS011;33708;49.466;11.176;2022-10-31T03:13:10;18.67;;;7.10;;
4698;SDS011;33708;49.466;11.176;2022-10-31T03:15:49;24.60;;;6.97;;
4698;SDS011;33708;49.466;11.176;2022-10-31T03:21:21;18.83;;;10.63;;
4698;SDS011;33708;49.466;11.176;2022-10-31T03:23:51;17.37;;;7.17;;
4698;SDS011;33708;49.466;11.176;2022-10-31T03:26:18;15.93;;;7.40;;
4698;SDS011;33708;49.466;11.176;2022-10-31T03:28:48;20.43;;;7.53;;
4698;SDS011;33708;49.466;11.176;2022-10-31T03:31:18;22.57;;;8.67;;
4698;SDS011;33708;49.466;11.176;2022-10-31T03:33:48;17.10;;;6.60;;
4698;SDS011;33708;49.466;11.176;2022-10-31T03:36:16;28.80;;;13.00;;
4698;SDS011;33708;49.466;11.176;2022-10-31T03:38:42;21.63;;;10.73;;
4698;SDS011;33708;49.466;11.176;2022-10-31T03:41:13;24.73;;;13.20;;
4698;SDS011;33708;49.466;11.176;2022-10-31T03:43:49;26.97;;;9.90;;
4698;SDS011;33708;49.466;11.176;2022-10-31T03:46:18;29.00;;;15.87;;
4698;SDS011;33708;49.466;11.176;2022-10-31T03:48:44;24.20;;;10.20;;
4698;SDS011;33708;49.466;11.176;2022-10-31T03:51:14;20.43;;;11.03;;
4698;SDS011;33708;49.466;11.176;2022-10-31T03:53:51;24.57;;;8.47;;
4698;SDS011;33708;49.466;11.176;2022-10-31T03:59:24;14.80;;;7.17;;
4698;SDS011;33708;49.466;11.176;2022-10-31T04:01:56;22.30;;;7.67;;
4698;SDS011;33708;49.466;11.176;2022-10-31T04:04:27;18.40;;;8.33;;
4698;SDS011;33708;49.466;11.176;2022-10-31T04:06:54;30.30;;;17.80;;
4698;SDS011;33708;49.466;11.176;2022-10-31T04:09:22;21.70;;;13.80;;
4698;SDS011;33708;49.466;11.176;2022-10-31T04:11:51;26.50;;;13.10;;
4698;SDS011;33708;49.466;11.176;2022-10-31T04:14:18;30.57;;;10.63;;
4698;SDS011;33708;49.466;11.176;2022-10-31T04:16:46;23.67;;;10.30;;
4698;SDS011;33708;49.466;11.176;2022-10-31T04:19:12;18.50;;;8.67;;
4698;SDS011;33708;49.466;11.176;2022-10-31T04:21:39;16.80;;;6.97;;
4698;SDS011;33708;49.466;11.176;2022-10-31T04:24:04;21.30;;;7.53;;
4698;SDS011;33708;49.466;11.176;2022-10-31T04:26:30;29.77;;;7.17;;
4698;SDS011;33708;49.466;11.176;2022-10-31T04:28:56;21.37;;;7.10;;
4698;SDS011;33708;49.466;11.176;2022-10-31T04:31:21;18.43;;;7.03;;
4698;SDS011;33708;49.466;11.176;2022-10-31T04:33:47;21.70;;;7.47;;
4698;SDS011;33708;49.466;11.176;2022-10-31T04:36:13;25.00;;;9.43;;
4698;SDS011;33708;49.466;11.176;2022-10-31T04:38:38;21.83;;;9.07;;
4698;SDS011;33708;49.466;11.176;2022-10-31T04:41:04;17.73;;;8.17;;
4698;SDS011;33708;49.466;11.176;2022-10-31T04:43:30;19.00;;;7.33;;
4698;SDS011;33708;49.466;11.176;2022-10-31T04:45:55;21.70;;;8.60;;
4698;SDS011;33708;49.466;11.176;2022-10-31T04:48:21;26.00;;;8.10;;
4698;SDS011;33708;49.466;11.176;2022-10-31T04:50:46;40.20;;;9.70;;
4698;SDS011;33708;49.466;11.176;2022-10-31T04:53:12;19.53;;;7.97;;
4698;SDS011;33708;49.466;11.176;2022-10-31T04:55:38;18.97;;;8.03;;
4698;SDS011;33708;49.466;11.176;2022-10-31T04:58:03;22.50;;;6.53;;
4698;SDS011;33708;49.466;11.176;2022-10-31T05:00:29;17.03;;;6.30;;
4698;SDS011;33708;49.466;11.176;2022-10-31T05:02:56;14.27;;;6.97;;
4698;SDS011;33708;49.466;11.176;2022-10-31T05:05:26;16.30;;;7.37;;
4698;SDS011;33708;49.466;11.176;2022-10-31T05:07:53;21.53;;;6.90;;
4698;SDS011;33708;49.466;11.176;2022-10-31T05:10:20;20.47;;;8.60;;
4698;SDS011;33708;49.466;11.176;2022-10-31T05:12:48;25.50;;;7.07;;
4698;SDS011;33708;49.466;11.176;2022-10-31T05:15:19;14.90;;;6.93;;
4698;SDS011;33708;49.466;11.176;2022-10-31T05:17:45;17.90;;;8.07;;
4698;SDS011;33708;49.466;11.176;2022-10-31T05:20:12;18.07;;;7.80;;
4698;SDS011;33708;49.466;11.176;2022-10-31T05:22:45;61.47;;;43.23;;
4698;SDS011;33708;49.466;11.176;2022-10-31T05:25:12;51.57;;;27.10;;
4698;SDS011;33708;49.466;11.176;2022-10-31T05:27:41;48.83;;;19.80;;
4698;SDS011;33708;49.466;11.176;2022-10-31T05:30:09;54.33;;;24.93;;
4698;SDS011;33708;49.466;11.176;2022-10-31T05:32:37;32.20;;;12.43;;
4698;SDS011;33708;49.466;11.176;2022-10-31T05:35:07;24.20;;;9.93;;
4698;SDS011;33708;49.466;11.176;2022-10-31T05:37:37;59.10;;;28.80;;
4698;SDS011;33708;49.466;11.176;2022-10-31T05:40:03;39.00;;;20.30;;
4698;SDS011;33708;49.466;11.176;2022-10-31T05:42:31;25.40;;;10.90;;
4698;SDS011;33708;49.466;11.176;2022-10-31T05:44:56;69.03;;;34.20;;
4698;SDS011;33708;49.466;11.176;2022-10-31T05:47:22;104.50;;;49.13;;
4698;SDS011;33708;49.466;11.176;2022-10-31T05:49:48;77.50;;;36.47;;
4698;SDS011;33708;49.466;11.176;2022-10-31T05:52:13;85.37;;;39.33;;
4698;SDS011;33708;49.466;11.176;2022-10-31T05:54:39;51.63;;;23.40;;
4698;SDS011;33708;49.466;11.176;2022-10-31T05:57:05;28.60;;;11.17;;
4698;SDS011;33708;49.466;11.176;2022-10-31T05:59:30;24.97;;;10.93;;
4698;SDS011;33708;49.466;11.176;2022-10-31T06:01:56;43.07;;;18.07;;
4698;SDS011;33708;49.466;11.176;2022-10-31T06:04:22;34.20;;;15.90;;
4698;SDS011;33708;49.466;11.176;2022-10-31T06:06:48;25.37;;;10.10;;
4698;SDS011;33708;49.466;11.176;2022-10-31T06:09:13;20.17;;;9.57;;
4698;SDS011;33708;49.466;11.176;2022-10-31T06:11:39;33.10;;;11.40;;
4698;SDS011;33708;49.466;11.176;2022-10-31T06:14:05;19.97;;;10.00;;
4698;SDS011;33708;49.466;11.176;2022-10-31T06:16:30;18.40;;;8.40;;
4698;SDS011;33708;49.466;11.176;2022-10-31T06:18:56;30.83;;;8.30;;
4698;SDS011;33708;49.466;11.176;2022-10-31T06:21:22;25.07;;;9.10;;
4698;SDS011;33708;49.466;11.176;2022-10-31T06:23:47;23.57;;;8.77;;
4698;SDS011;33708;49.466;11.176;2022-10-31T06:26:13;21.50;;;7.50;;
4698;SDS011;33708;49.466;11.176;2022-10-31T06:28:39;14.07;;;6.83;;
4698;SDS011;33708;49.466;11.176;2022-10-31T06:31:04;20.43;;;7.20;;
4698;SDS011;33708;49.466;11.176;2022-10-31T06:33:30;17.00;;;7.00;;
4698;SDS011;33708;49.466;11.176;2022-10-31T06:35:56;17.83;;;7.00;;
4698;SDS011;33708;49.466;11.176;2022-10-31T06:38:21;30.33;;;8.47;;
4698;SDS011;33708;49.466;11.176;2022-10-31T06:40:47;29.37;;;7.40;;
4698;SDS011;33708;49.466;11.176;2022-10-31T06:43:12;18.20;;;5.80;;
4698;SDS011;33708;49.466;11.176;2022-10-31T06:45:39;19.43;;;7.37;;
4698;SDS011;33708;49.466;11.176;2022-10-31T06:48:05;21.83;;;8.30;;
4698;SDS011;33708;49.466;11.176;2022-10-31T06:50:31;20.17;;;7.27;;
4698;SDS011;33708;49.466;11.176;2022-10-31T06:52:57;25.73;;;7.00;;
4698;SDS011;33708;49.466;11.176;2022-10-31T06:55:23;26.13;;;8.33;;
4698;SDS011;33708;49.466;11.176;2022-10-31T06:57:51;20.67;;;6.30;;
4698;SDS011;33708;49.466;11.176;2022-10-31T07:00:21;22.30;;;7.17;;
4698;SDS011;33708;49.466;11.176;2022-10-31T07:02:53;19.33;;;8.43;;
4698;SDS011;33708;49.466;11.176;2022-10-31T07:05:23;22.53;;;7.57;;
4698;SDS011;33708;49.466;11.176;2022-10-31T07:07:57;25.03;;;7.90;;
4698;SDS011;33708;49.466;11.176;2022-10-31T07:10:24;19.47;;;6.17;;
4698;SDS011;33708;49.466;11.176;2022-10-31T07:12:55;15.70;;;6.43;;
4698;SDS011;33708;49.466;11.176;2022-10-31T07:15:21;23.33;;;6.50;;
4698;SDS011;33708;49.466;11.176;2022-10-31T07:17:48;15.87;;;5.80;;
4698;SDS011;33708;49.466;11.176;2022-10-31T07:20:13;20.17;;;6.30;;
4698;SDS011;33708;49.466;11.176;2022-10-31T07:22:39;22.00;;;6.50;;
4698;SDS011;33708;49.466;11.176;2022-10-31T07:25:05;16.83;;;5.70;;
4698;SDS011;33708;49.466;11.176;2022-10-31T07:27:37;14.90;;;6.43;;
4698;SDS011;33708;49.466;11.176;2022-10-31T07:30:07;16.17;;;6.43;;
4698;SDS011;33708;49.466;11.176;2022-10-31T07:32:38;16.13;;;6.93;;
4698;SDS011;33708;49.466;11.176;2022-10-31T07:35:05;19.40;;;6.80;;
4698;SDS011;33708;49.466;11.176;2022-10-31T07:37:32;23.13;;;6.50;;
4698;SDS011;33708;49.466;11.176;2022-10-31T07:39:58;16.90;;;6.33;;
4698;SDS011;33708;49.466;11.176;2022-10-31T07:42:23;22.63;;;6.60;;
4698;SDS011;33708;49.466;11.176;2022-10-31T07:44:49;14.63;;;6.17;;
4698;SDS011;33708;49.466;11.176;2022-10-31T07:47:15;17.80;;;6.07;;
4698;SDS011;33708;49.466;11.176;2022-10-31T07:49:40;17.03;;;6.30;;
4698;SDS011;33708;49.466;11.176;2022-10-31T07:52:06;17.77;;;6.20;;
4698;SDS011;33708;49.466;11.176;2022-10-31T07:54:31;16.60;;;6.30;;
4698;SDS011;33708;49.466;11.176;2022-10-31T07:56:57;16.47;;;6.30;;
4698;SDS011;33708;49.466;11.176;2022-10-31T07:59:22;15.63;;;5.67;;
4698;SDS011;33708;49.466;11.176;2022-10-31T08:01:48;18.77;;;6.80;;
4698;SDS011;33708;49.466;11.176;2022-10-31T08:04:14;15.70;;;6.43;;
4698;SDS011;33708;49.466;11.176;2022-10-31T08:06:39;15.77;;;6.00;;
4698;SDS011;33708;49.466;11.176;2022-10-31T08:09:05;19.30;;;7.37;;
4698;SDS011;33708;49.466;11.176;2022-10-31T08:11:30;18.30;;;5.87;;
4698;SDS011;33708;49.466;11.176;2022-10-31T08:13:56;20.80;;;7.40;;
4698;SDS011;33708;49.466;11.176;2022-10-31T08:16:21;19.80;;;7.27;;
4698;SDS011;33708;49.466;11.176;2022-10-31T08:18:47;19.30;;;6.63;;
4698;SDS011;33708;49.466;11.176;2022-10-31T08:21:13;23.83;;;6.20;;
4698;SDS011;33708;49.466;11.176;2022-10-31T08:23:38;16.63;;;6.40;;
4698;SDS011;33708;49.466;11.176;2022-10-31T08:26:04;19.87;;;6.43;;
4698;SDS011;33708;49.466;11.176;2022-10-31T08:28:31;18.10;;;5.77;;
4698;SDS011;33708;49.466;11.176;2022-10-31T08:30:57;11.30;;;5.50;;
4698;SDS011;33708;49.466;11.176;2022-10-31T08:33:23;20.67;;;6.30;;
4698;SDS011;33708;49.466;11.176;2022-10-31T08:35:48;16.97;;;6.93;;
4698;SDS011;33708;49.466;11.176;2022-10-31T08:38:14;17.40;;;6.57;;
4698;SDS011;33708;49.466;11.176;2022-10-31T08:40:40;16.90;;;6.87;;
4698;SDS011;33708;49.466;11.176;2022-10-31T08:43:10;14.30;;;5.90;;
4698;SDS011;33708;49.466;11.176;2022-10-31T08:45:37;15.90;;;5.73;;
4698;SDS011;33708;49.466;11.176;2022-10-31T08:48:04;14.33;;;6.50;;
4698;SDS011;33708;49.466;11.176;2022-10-31T08:50:32;17.60;;;6.17;;
4698;SDS011;33708;49.466;11.176;2022-10-31T08:53:32;14.63;;;5.80;;
4698;SDS011;33708;49.466;11.176;2022-10-31T08:55:53;16.00;;;6.37;;
4698;SDS011;33708;49.466;11.176;2022-10-31T08:58:20;17.80;;;6.00;;
4698;SDS011;33708;49.466;11.176;2022-10-31T09:00:47;15.93;;;5.60;;
4698;SDS011;33708;49.466;11.176;2022-10-31T09:03:18;16.60;;;6.33;;
4698;SDS011;33708;49.466;11.176;2022-10-31T09:05:45;25.60;;;6.90;;
4698;SDS011;33708;49.466;11.176;2022-10-31T09:08:11;14.00;;;6.27;;
4698;SDS011;33708;49.466;11.176;2022-10-31T09:10:38;18.27;;;7.30;;
4698;SDS011;33708;49.466;11.176;2022-10-31T09:13:05;19.73;;;8.20;;
4698;SDS011;33708;49.466;11.176;2022-10-31T09:15:34;19.70;;;7.50;;
4698;SDS011;33708;49.466;11.176;2022-10-31T09:18:03;24.43;;;7.50;;
4698;SDS011;33708;49.466;11.176;2022-10-31T09:20:29;20.60;;;8.43;;
4698;SDS011;33708;49.466;11.176;2022-10-31T09:23:00;27.67;;;9.50;;
4698;SDS011;33708;49.466;11.176;2022-10-31T09:25:28;24.43;;;8.90;;
4698;SDS011;33708;49.466;11.176;2022-10-31T09:27:57;23.30;;;8.20;;
4698;SDS011;33708;49.466;11.176;2022-10-31T09:30:28;21.27;;;9.20;;
4698;SDS011;33708;49.466;11.176;2022-10-31T09:32:59;19.97;;;8.17;;
4698;SDS011;33708;49.466;11.176;2022-10-31T09:35:26;27.33;;;8.93;;
4698;SDS011;33708;49.466;11.176;2022-10-31T09:37:56;16.43;;;7.40;;
4698;SDS011;33708;49.466;11.176;2022-10-31T09:40:36;24.63;;;8.90;;
4698;SDS011;33708;49.466;11.176;2022-10-31T09:43:18;26.47;;;8.40;;
4698;SDS011;33708;49.466;11.176;2022-10-31T09:48:55;20.37;;;8.20;;
4698;SDS011;33708;49.466;11.176;2022-10-31T09:52:01;20.17;;;7.87;;
4698;SDS011;33708;49.466;11.176;2022-10-31T09:54:42;19.00;;;7.17;;
4698;SDS011;33708;49.466;11.176;2022-10-31T09:57:13;22.50;;;7.33;;
4698;SDS011;33708;49.466;11.176;2022-10-31T09:59:41;19.60;;;7.50;;
4698;SDS011;33708;49.466;11.176;2022-10-31T10:05:08;20.10;;;7.00;;
4698;SDS011;33708;49.466;11.176;2022-10-31T10:07:41;20.17;;;6.97;;
4698;SDS011;33708;49.466;11.176;2022-10-31T10:10:27;25.10;;;7.20;;
4698;SDS011;33708;49.466;11.176;2022-10-31T10:13:18;16.23;;;6.53;;
4698;SDS011;33708;49.466;11.176;2022-10-31T10:16:18;15.50;;;6.33;;
4698;SDS011;33708;49.466;11.176;2022-10-31T10:22:02;15.90;;;6.93;;
4698;SDS011;33708;49.466;11.176;2022-10-31T10:30:02;20.07;;;6.67;;
4698;SDS011;33708;49.466;11.176;2022-10-31T10:32:53;32.93;;;6.73;;
4698;SDS011;33708;49.466;11.176;2022-10-31T10:35:24;18.20;;;5.17;;
4698;SDS011;33708;49.466;11.176;2022-10-31T10:38:09;20.00;;;5.50;;
4698;SDS011;33708;49.466;11.176;2022-10-31T10:40:40;20.37;;;5.73;;
4698;SDS011;33708;49.466;11.176;2022-10-31T10:49:18;22.20;;;6.50;;
4698;SDS011;33708;49.466;11.176;2022-10-31T10:52:06;24.50;;;5.60;;
4698;SDS011;33708;49.466;11.176;2022-10-31T10:55:16;28.13;;;5.60;;
4698;SDS011;33708;49.466;11.176;2022-10-31T11:00:24;11.70;;;4.70;;
4698;SDS011;33708;49.466;11.176;2022-10-31T11:02:50;19.33;;;5.17;;
4698;SDS011;33708;49.466;11.176;2022-10-31T11:05:22;18.60;;;5.87;;
4698;SDS011;33708;49.466;11.176;2022-10-31T11:07:50;19.07;;;4.97;;
4698;SDS011;33708;49.466;11.176;2022-10-31T11:10:16;18.10;;;6.23;;
4698;SDS011;33708;49.466;11.176;2022-10-31T11:12:43;17.53;;;5.27;;
4698;SDS011;33708;49.466;11.176;2022-10-31T11:15:49;17.73;;;5.07;;
4698;SDS011;33708;49.466;11.176;2022-10-31T11:18:20;17.27;;;5.00;;
4698;SDS011;33708;49.466;11.176;2022-10-31T11:20:58;16.30;;;4.57;;
4698;SDS011;33708;49.466;11.176;2022-10-31T11:23:25;22.87;;;4.80;;
4698;SDS011;33708;49.466;11.176;2022-10-31T11:28:26;20.10;;;4.50;;
4698;SDS011;33708;49.466;11.176;2022-10-31T11:31:12;27.77;;;5.23;;
4698;SDS011;33708;49.466;11.176;2022-10-31T11:36:16;22.03;;;5.00;;
4698;SDS011;33708;49.466;11.176;2022-10-31T11:38:46;15.90;;;4.97;;
4698;SDS011;33708;49.466;11.176;2022-10-31T11:41:14;20.93;;;5.00;;
4698;SDS011;33708;49.466;11.176;2022-10-31T11:43:53;21.13;;;4.77;;
4698;SDS011;33708;49.466;11.176;2022-10-31T11:46:34;17.37;;;4.60;;
4698;SDS011;33708;49.466;11.176;2022-10-31T11:49:18;17.10;;;5.60;;
4698;SDS011;33708;49.466;11.176;2022-10-31T11:51:49;16.63;;;4.90;;
4698;SDS011;33708;49.466;11.176;2022-10-31T11:54:20;22.53;;;4.70;;
4698;SDS011;33708;49.466;11.176;2022-10-31T11:56:52;15.57;;;4.67;;
4698;SDS011;33708;49.466;11.176;2022-10-31T11:59:28;17.50;;;4.67;;
4698;SDS011;33708;49.466;11.176;2022-10-31T12:01:56;16.50;;;5.20;;
4698;SDS011;33708;49.466;11.176;2022-10-31T12:04:26;21.03;;;4.43;;
4698;SDS011;33708;49.466;11.176;2022-10-31T12:06:59;22.40;;;4.73;;
4698;SDS011;33708;49.466;11.176;2022-10-31T12:09:26;16.03;;;4.60;;
4698;SDS011;33708;49.466;11.176;2022-10-31T12:14:30;19.90;;;4.80;;
4698;SDS011;33708;49.466;11.176;2022-10-31T12:28:01;16.10;;;4.43;;
4698;SDS011;33708;49.466;11.176;2022-10-31T12:30:40;19.67;;;5.10;;
4698;SDS011;33708;49.466;11.176;2022-10-31T12:38:59;18.33;;;4.17;;
4698;SDS011;33708;49.466;11.176;2022-10-31T12:44:28;12.77;;;4.20;;
4698;SDS011;33708;49.466;11.176;2022-10-31T12:58:52;29.73;;;4.43;;
4698;SDS011;33708;49.466;11.176;2022-10-31T13:01:27;15.30;;;4.30;;
4698;SDS011;33708;49.466;11.176;2022-10-31T13:04:05;18.10;;;4.73;;
4698;SDS011;33708;49.466;11.176;2022-10-31T13:06:43;22.63;;;4.40;;
4698;SDS011;33708;49.466;11.176;2022-10-31T13:09:23;16.00;;;3.97;;
4698;SDS011;33708;49.466;11.176;2022-10-31T13:12:19;16.17;;;3.50;;
4698;SDS011;33708;49.466;11.176;2022-10-31T13:14:45;14.50;;;3.13;;
4698;SDS011;33708;49.466;11.176;2022-10-31T13:17:38;19.93;;;2.90;;
4698;SDS011;33708;49.466;11.176;2022-10-31T13:23:07;16.83;;;3.47;;
4698;SDS011;33708;49.466;11.176;2022-10-31T13:25:38;17.77;;;3.87;;
4698;SDS011;33708;49.466;11.176;2022-10-31T13:28:28;13.73;;;3.07;;
4698;SDS011;33708;49.466;11.176;2022-10-31T13:31:08;20.63;;;3.60;;
4698;SDS011;33708;49.466;11.176;2022-10-31T13:33:57;20.73;;;3.67;;
4698;SDS011;33708;49.466;11.176;2022-10-31T13:36:32;14.37;;;3.40;;
4698;SDS011;33708;49.466;11.176;2022-10-31T13:39:14;16.57;;;3.00;;
4698;SDS011;33708;49.466;11.176;2022-10-31T13:45:06;14.23;;;2.90;;
4698;SDS011;33708;49.466;11.176;2022-10-31T13:47:40;11.70;;;2.70;;
4698;SDS011;33708;49.466;11.176;2022-10-31T13:50:20;19.13;;;3.23;;
4698;SDS011;33708;49.466;11.176;2022-10-31T13:52:48;24.93;;;3.20;;
4698;SDS011;33708;49.466;11.176;2022-10-31T14:00:46;22.97;;;3.23;;
4698;SDS011;33708;49.466;11.176;2022-10-31T14:03:22;19.13;;;3.00;;
4698;SDS011;33708;49.466;11.176;2022-10-31T14:05:53;23.77;;;4.10;;
4698;SDS011;33708;49.466;11.176;2022-10-31T14:08:21;16.70;;;3.10;;
4698;SDS011;33708;49.466;11.176;2022-10-31T14:10:49;10.10;;;2.40;;
4698;SDS011;33708;49.466;11.176;2022-10-31T14:13:21;12.50;;;3.03;;
4698;SDS011;33708;49.466;11.176;2022-10-31T14:15:58;14.50;;;3.43;;
4698;SDS011;33708;49.466;11.176;2022-10-31T14:18:36;16.90;;;3.30;;
4698;SDS011;33708;49.466;11.176;2022-10-31T14:23:47;15.20;;;2.63;;
4698;SDS011;33708;49.466;11.176;2022-10-31T14:28:51;18.70;;;3.30;;
4698;SDS011;33708;49.466;11.176;2022-10-31T14:36:51;13.03;;;3.10;;
4698;SDS011;33708;49.466;11.176;2022-10-31T14:42:43;19.70;;;3.43;;
4698;SDS011;33708;49.466;11.176;2022-10-31T14:46:02;14.20;;;3.07;;
4698;SDS011;33708;49.466;11.176;2022-10-31T14:51:47;18.17;;;2.93;;
4698;SDS011;33708;49.466;11.176;2022-10-31T14:54:16;17.80;;;3.63;;
4698;SDS011;33708;49.466;11.176;2022-10-31T14:56:48;24.07;;;3.17;;
4698;SDS011;33708;49.466;11.176;2022-10-31T14:59:18;10.47;;;3.13;;
4698;SDS011;33708;49.466;11.176;2022-10-31T15:02:30;14.73;;;3.20;;
4698;SDS011;33708;49.466;11.176;2022-10-31T15:04:39;15.43;;;3.43;;
4698;SDS011;33708;49.466;11.176;2022-10-31T15:07:08;22.97;;;3.90;;
4698;SDS011;33708;49.466;11.176;2022-10-31T15:09:39;14.30;;;3.30;;
4698;SDS011;33708;49.466;11.176;2022-10-31T15:12:27;12.30;;;3.00;;
4698;SDS011;33708;49.466;11.176;2022-10-31T15:14:58;17.43;;;3.40;;
4698;SDS011;33708;49.466;11.176;2022-10-31T15:17:41;11.20;;;2.70;;
4698;SDS011;33708;49.466;11.176;2022-10-31T15:20:11;12.47;;;3.33;;
4698;SDS011;33708;49.466;11.176;2022-10-31T15:22:41;14.57;;;3.00;;
4698;SDS011;33708;49.466;11.176;2022-10-31T15:25:12;17.53;;;4.43;;
4698;SDS011;33708;49.466;11.176;2022-10-31T15:27:46;15.67;;;3.73;;
4698;SDS011;33708;49.466;11.176;2022-10-31T15:30:17;16.87;;;3.40;;
4698;SDS011;33708;49.466;11.176;2022-10-31T15:32:47;15.73;;;3.27;;
4698;SDS011;33708;49.466;11.176;2022-10-31T15:35:21;18.10;;;3.27;;
4698;SDS011;33708;49.466;11.176;2022-10-31T15:37:52;26.23;;;9.30;;
4698;SDS011;33708;49.466;11.176;2022-10-31T15:40:19;11.43;;;2.87;;
4698;SDS011;33708;49.466;11.176;2022-10-31T15:42:49;17.53;;;3.10;;
4698;SDS011;33708;49.466;11.176;2022-10-31T15:45:22;14.83;;;3.40;;
4698;SDS011;33708;49.466;11.176;2022-10-31T15:47:56;22.83;;;3.07;;
4698;SDS011;33708;49.466;11.176;2022-10-31T15:50:31;18.93;;;3.53;;
4698;SDS011;33708;49.466;11.176;2022-10-31T15:53:24;17.23;;;4.30;;
4698;SDS011;33708;49.466;11.176;2022-10-31T15:55:57;19.93;;;3.60;;
4698;SDS011;33708;49.466;11.176;2022-10-31T15:58:26;18.93;;;3.43;;
4698;SDS011;33708;49.466;11.176;2022-10-31T16:01:27;14.80;;;3.30;;
4698;SDS011;33708;49.466;11.176;2022-10-31T16:06:51;19.77;;;3.90;;
4698;SDS011;33708;49.466;11.176;2022-10-31T16:09:26;16.50;;;3.30;;
4698;SDS011;33708;49.466;11.176;2022-10-31T16:11:52;21.40;;;4.00;;
4698;SDS011;33708;49.466;11.176;2022-10-31T16:14:22;17.53;;;4.40;;
4698;SDS011;33708;49.466;11.176;2022-10-31T16:16:51;14.10;;;3.60;;
4698;SDS011;33708;49.466;11.176;2022-10-31T16:22:14;14.90;;;4.00;;
4698;SDS011;33708;49.466;11.176;2022-10-31T16:24:52;19.83;;;3.97;;
4698;SDS011;33708;49.466;11.176;2022-10-31T16:27:27;19.90;;;3.77;;
4698;SDS011;33708;49.466;11.176;2022-10-31T16:29:56;16.03;;;3.90;;
4698;SDS011;33708;49.466;11.176;2022-10-31T16:32:34;17.20;;;3.90;;
4698;SDS011;33708;49.466;11.176;2022-10-31T16:35:16;17.63;;;3.83;;
4698;SDS011;33708;49.466;11.176;2022-10-31T16:37:43;17.30;;;3.70;;
4698;SDS011;33708;49.466;11.176;2022-10-31T16:40:12;14.43;;;3.50;;
4698;SDS011;33708;49.466;11.176;2022-10-31T16:42:39;13.97;;;4.53;;
4698;SDS011;33708;49.466;11.176;2022-10-31T16:45:06;17.63;;;4.43;;
4698;SDS011;33708;49.466;11.176;2022-10-31T16:47:37;14.77;;;4.10;;
4698;SDS011;33708;49.466;11.176;2022-10-31T16:50:05;16.57;;;4.00;;
4698;SDS011;33708;49.466;11.176;2022-10-31T16:52:36;18.83;;;4.37;;
4698;SDS011;33708;49.466;11.176;2022-10-31T16:55:02;16.83;;;3.70;;
4698;SDS011;33708;49.466;11.176;2022-10-31T16:57:29;22.80;;;3.30;;
4698;SDS011;33708;49.466;11.176;2022-10-31T16:59:55;12.80;;;4.83;;
4698;SDS011;33708;49.466;11.176;2022-10-31T17:02:22;19.93;;;6.00;;
4698;SDS011;33708;49.466;11.176;2022-10-31T17:04:48;15.90;;;4.97;;
4698;SDS011;33708;49.466;11.176;2022-10-31T17:07:14;15.70;;;5.67;;